sensor_id;sensor_type;location;lat;lon;timestamp;P1;durP1;ratioP1;P2;durP2;ratioP2
28960;SDS011;16068;42.896;20.868;2023-04-16T00:00:07;13.70;;;4.82;;
28960;SDS011;16068;42.896;20.868;2023-04-16T00:02:57;11.55;;;4.25;;
28960;SDS011;16068;42.896;20.868;2023-04-16T00:05:44;15.57;;;5.22;;
28960;SDS011;16068;42.896;20.868;2023-04-16T00:08:30;11.07;;;4.72;;
28960;SDS011;16068;42.896;20.868;2023-04-16T00:11:16;14.80;;;4.20;;
28960;SDS011;16068;42.896;20.868;2023-04-16T00:14:03;18.80;;;4.97;;
28960;SDS011;16068;42.896;20.868;2023-04-16T00:16:49;15.20;;;7.05;;
28960;SDS011;16068;42.896;20.868;2023-04-16T00:19:35;14.82;;;8.30;;
28960;SDS011;16068;42.896;20.868;2023-04-16T00:22:21;22.58;;;5.80;;
28960;SDS011;16068;42.896;20.868;2023-04-16T00:25:07;12.48;;;6.32;;
28960;SDS011;16068;42.896;20.868;2023-04-16T00:27:54;21.88;;;6.38;;
28960;SDS011;16068;42.896;20.868;2023-04-16T00:30:40;15.57;;;4.68;;
28960;SDS011;16068;42.896;20.868;2023-04-16T00:33:26;13.13;;;4.95;;
28960;SDS011;16068;42.896;20.868;2023-04-16T00:36:11;28.27;;;5.20;;
28960;SDS011;16068;42.896;20.868;2023-04-16T00:38:57;17.80;;;6.07;;
28960;SDS011;16068;42.896;20.868;2023-04-16T00:41:45;21.15;;;5.57;;
28960;SDS011;16068;42.896;20.868;2023-04-16T00:44:31;13.68;;;5.50;;
28960;SDS011;16068;42.896;20.868;2023-04-16T00:47:20;16.55;;;6.15;;
28960;SDS011;16068;42.896;20.868;2023-04-16T00:50:09;16.52;;;5.82;;
28960;SDS011;16068;42.896;20.868;2023-04-16T00:52:56;17.58;;;6.50;;
28960;SDS011;16068;42.896;20.868;2023-04-16T00:55:43;20.40;;;5.68;;
28960;SDS011;16068;42.896;20.868;2023-04-16T00:58:31;21.65;;;5.30;;
28960;SDS011;16068;42.896;20.868;2023-04-16T01:01:17;17.95;;;4.80;;
28960;SDS011;16068;42.896;20.868;2023-04-16T01:04:03;10.10;;;4.47;;
28960;SDS011;16068;42.896;20.868;2023-04-16T01:06:51;12.63;;;4.28;;
28960;SDS011;16068;42.896;20.868;2023-04-16T01:09:37;18.27;;;5.10;;
28960;SDS011;16068;42.896;20.868;2023-04-16T01:12:23;21.30;;;4.50;;
28960;SDS011;16068;42.896;20.868;2023-04-16T01:15:10;23.30;;;4.97;;
28960;SDS011;16068;42.896;20.868;2023-04-16T01:17:56;13.50;;;4.22;;
28960;SDS011;16068;42.896;20.868;2023-04-16T01:20:43;12.63;;;3.45;;
28960;SDS011;16068;42.896;20.868;2023-04-16T01:23:29;14.50;;;4.57;;
28960;SDS011;16068;42.896;20.868;2023-04-16T01:26:16;13.02;;;4.40;;
28960;SDS011;16068;42.896;20.868;2023-04-16T01:29:02;11.90;;;4.80;;
28960;SDS011;16068;42.896;20.868;2023-04-16T01:31:48;12.98;;;3.75;;
28960;SDS011;16068;42.896;20.868;2023-04-16T01:34:44;8.50;;;3.78;;
28960;SDS011;16068;42.896;20.868;2023-04-16T01:37:29;8.25;;;3.92;;
28960;SDS011;16068;42.896;20.868;2023-04-16T01:40:16;11.60;;;4.50;;
28960;SDS011;16068;42.896;20.868;2023-04-16T01:43:03;8.68;;;3.90;;
28960;SDS011;16068;42.896;20.868;2023-04-16T01:45:51;8.15;;;3.30;;
28960;SDS011;16068;42.896;20.868;2023-04-16T01:48:37;11.50;;;3.78;;
28960;SDS011;16068;42.896;20.868;2023-04-16T01:51:23;7.20;;;3.10;;
28960;SDS011;16068;42.896;20.868;2023-04-16T01:54:09;11.07;;;3.50;;
28960;SDS011;16068;42.896;20.868;2023-04-16T01:56:57;10.70;;;3.67;;
28960;SDS011;16068;42.896;20.868;2023-04-16T01:59:43;9.65;;;3.55;;
28960;SDS011;16068;42.896;20.868;2023-04-16T02:02:29;11.23;;;4.20;;
28960;SDS011;16068;42.896;20.868;2023-04-16T02:05:15;14.68;;;3.65;;
28960;SDS011;16068;42.896;20.868;2023-04-16T02:08:01;10.90;;;3.88;;
28960;SDS011;16068;42.896;20.868;2023-04-16T02:10:48;14.30;;;3.88;;
28960;SDS011;16068;42.896;20.868;2023-04-16T02:13:35;10.85;;;3.88;;
28960;SDS011;16068;42.896;20.868;2023-04-16T02:16:21;8.25;;;4.13;;
28960;SDS011;16068;42.896;20.868;2023-04-16T02:19:43;11.95;;;4.20;;
28960;SDS011;16068;42.896;20.868;2023-04-16T02:22:29;12.88;;;4.38;;
28960;SDS011;16068;42.896;20.868;2023-04-16T02:25:15;8.82;;;4.00;;
28960;SDS011;16068;42.896;20.868;2023-04-16T02:28:02;6.35;;;3.08;;
28960;SDS011;16068;42.896;20.868;2023-04-16T02:30:53;10.80;;;3.28;;
28960;SDS011;16068;42.896;20.868;2023-04-16T02:33:39;11.98;;;3.42;;
28960;SDS011;16068;42.896;20.868;2023-04-16T02:36:25;11.00;;;3.50;;
28960;SDS011;16068;42.896;20.868;2023-04-16T02:39:12;8.48;;;2.97;;
28960;SDS011;16068;42.896;20.868;2023-04-16T02:41:59;9.77;;;3.28;;
28960;SDS011;16068;42.896;20.868;2023-04-16T02:44:47;8.60;;;3.10;;
28960;SDS011;16068;42.896;20.868;2023-04-16T02:47:33;7.78;;;3.30;;
28960;SDS011;16068;42.896;20.868;2023-04-16T02:50:20;8.25;;;3.05;;
28960;SDS011;16068;42.896;20.868;2023-04-16T02:53:06;8.50;;;3.20;;
28960;SDS011;16068;42.896;20.868;2023-04-16T02:55:53;9.80;;;3.60;;
28960;SDS011;16068;42.896;20.868;2023-04-16T02:58:40;9.00;;;3.25;;
28960;SDS011;16068;42.896;20.868;2023-04-16T03:01:25;9.25;;;3.47;;
28960;SDS011;16068;42.896;20.868;2023-04-16T03:04:12;15.07;;;3.85;;
28960;SDS011;16068;42.896;20.868;2023-04-16T03:06:58;11.25;;;4.05;;
28960;SDS011;16068;42.896;20.868;2023-04-16T03:09:45;11.57;;;3.78;;
28960;SDS011;16068;42.896;20.868;2023-04-16T03:12:31;9.38;;;4.00;;
28960;SDS011;16068;42.896;20.868;2023-04-16T03:15:17;13.88;;;3.85;;
28960;SDS011;16068;42.896;20.868;2023-04-16T03:18:03;9.65;;;3.38;;
28960;SDS011;16068;42.896;20.868;2023-04-16T03:20:52;7.72;;;3.42;;
28960;SDS011;16068;42.896;20.868;2023-04-16T03:23:38;11.25;;;3.90;;
28960;SDS011;16068;42.896;20.868;2023-04-16T03:26:24;16.50;;;4.93;;
28960;SDS011;16068;42.896;20.868;2023-04-16T03:29:10;9.60;;;3.92;;
28960;SDS011;16068;42.896;20.868;2023-04-16T03:31:56;10.55;;;3.83;;
28960;SDS011;16068;42.896;20.868;2023-04-16T03:34:43;16.85;;;3.80;;
28960;SDS011;16068;42.896;20.868;2023-04-16T03:37:29;7.13;;;3.28;;
28960;SDS011;16068;42.896;20.868;2023-04-16T03:40:15;12.00;;;3.30;;
28960;SDS011;16068;42.896;20.868;2023-04-16T03:43:03;7.80;;;3.20;;
28960;SDS011;16068;42.896;20.868;2023-04-16T03:45:49;10.82;;;2.88;;
28960;SDS011;16068;42.896;20.868;2023-04-16T03:48:38;15.95;;;3.85;;
28960;SDS011;16068;42.896;20.868;2023-04-16T03:51:25;9.93;;;3.20;;
28960;SDS011;16068;42.896;20.868;2023-04-16T03:54:11;17.38;;;4.60;;
28960;SDS011;16068;42.896;20.868;2023-04-16T03:57:00;18.38;;;8.10;;
28960;SDS011;16068;42.896;20.868;2023-04-16T03:59:47;24.50;;;10.50;;
28960;SDS011;16068;42.896;20.868;2023-04-16T04:02:35;18.85;;;8.50;;
28960;SDS011;16068;42.896;20.868;2023-04-16T04:05:21;19.98;;;6.75;;
28960;SDS011;16068;42.896;20.868;2023-04-16T04:08:07;13.00;;;3.95;;
28960;SDS011;16068;42.896;20.868;2023-04-16T04:10:54;22.27;;;6.43;;
28960;SDS011;16068;42.896;20.868;2023-04-16T04:13:42;15.85;;;6.18;;
28960;SDS011;16068;42.896;20.868;2023-04-16T04:16:27;14.27;;;6.25;;
28960;SDS011;16068;42.896;20.868;2023-04-16T04:19:16;11.73;;;6.13;;
28960;SDS011;16068;42.896;20.868;2023-04-16T04:22:02;21.52;;;5.95;;
28960;SDS011;16068;42.896;20.868;2023-04-16T04:24:48;18.98;;;7.15;;
28960;SDS011;16068;42.896;20.868;2023-04-16T04:27:34;10.45;;;4.30;;
28960;SDS011;16068;42.896;20.868;2023-04-16T04:30:20;22.33;;;5.40;;
28960;SDS011;16068;42.896;20.868;2023-04-16T04:33:07;9.35;;;5.32;;
28960;SDS011;16068;42.896;20.868;2023-04-16T04:35:56;15.68;;;5.93;;
28960;SDS011;16068;42.896;20.868;2023-04-16T04:38:42;14.90;;;6.35;;
28960;SDS011;16068;42.896;20.868;2023-04-16T04:41:29;13.43;;;7.45;;
28960;SDS011;16068;42.896;20.868;2023-04-16T04:44:15;15.13;;;5.90;;
28960;SDS011;16068;42.896;20.868;2023-04-16T04:47:01;18.45;;;5.13;;
28960;SDS011;16068;42.896;20.868;2023-04-16T04:49:47;12.88;;;5.88;;
28960;SDS011;16068;42.896;20.868;2023-04-16T04:52:34;17.10;;;4.95;;
28960;SDS011;16068;42.896;20.868;2023-04-16T04:55:20;37.55;;;13.25;;
28960;SDS011;16068;42.896;20.868;2023-04-16T04:58:08;35.17;;;7.18;;
28960;SDS011;16068;42.896;20.868;2023-04-16T05:00:56;15.43;;;6.82;;
28960;SDS011;16068;42.896;20.868;2023-04-16T05:03:42;24.23;;;5.28;;
28960;SDS011;16068;42.896;20.868;2023-04-16T05:06:29;13.30;;;4.45;;
28960;SDS011;16068;42.896;20.868;2023-04-16T05:09:15;13.07;;;4.20;;
28960;SDS011;16068;42.896;20.868;2023-04-16T05:12:01;12.40;;;3.83;;
28960;SDS011;16068;42.896;20.868;2023-04-16T05:14:48;8.38;;;3.70;;
28960;SDS011;16068;42.896;20.868;2023-04-16T05:17:34;12.15;;;3.70;;
28960;SDS011;16068;42.896;20.868;2023-04-16T05:20:20;8.80;;;3.45;;
28960;SDS011;16068;42.896;20.868;2023-04-16T05:23:07;10.27;;;3.30;;
28960;SDS011;16068;42.896;20.868;2023-04-16T05:25:53;11.18;;;3.50;;
28960;SDS011;16068;42.896;20.868;2023-04-16T05:28:40;10.23;;;3.45;;
28960;SDS011;16068;42.896;20.868;2023-04-16T05:31:25;8.50;;;3.28;;
28960;SDS011;16068;42.896;20.868;2023-04-16T05:34:11;11.23;;;3.78;;
28960;SDS011;16068;42.896;20.868;2023-04-16T05:36:57;19.80;;;3.83;;
28960;SDS011;16068;42.896;20.868;2023-04-16T05:39:43;9.30;;;3.53;;
28960;SDS011;16068;42.896;20.868;2023-04-16T05:42:29;8.57;;;3.58;;
28960;SDS011;16068;42.896;20.868;2023-04-16T05:45:15;6.90;;;3.20;;
28960;SDS011;16068;42.896;20.868;2023-04-16T05:48:00;11.55;;;3.55;;
28960;SDS011;16068;42.896;20.868;2023-04-16T05:50:46;12.82;;;4.28;;
28960;SDS011;16068;42.896;20.868;2023-04-16T05:53:32;10.55;;;3.47;;
28960;SDS011;16068;42.896;20.868;2023-04-16T05:56:18;10.88;;;3.55;;
28960;SDS011;16068;42.896;20.868;2023-04-16T05:59:05;7.95;;;3.72;;
28960;SDS011;16068;42.896;20.868;2023-04-16T06:01:51;10.52;;;3.90;;
28960;SDS011;16068;42.896;20.868;2023-04-16T06:04:37;10.10;;;3.60;;
28960;SDS011;16068;42.896;20.868;2023-04-16T06:07:22;9.85;;;3.22;;
28960;SDS011;16068;42.896;20.868;2023-04-16T06:10:08;8.82;;;3.40;;
28960;SDS011;16068;42.896;20.868;2023-04-16T06:12:55;9.52;;;3.70;;
28960;SDS011;16068;42.896;20.868;2023-04-16T06:15:41;7.60;;;3.65;;
28960;SDS011;16068;42.896;20.868;2023-04-16T06:18:27;9.90;;;3.25;;
28960;SDS011;16068;42.896;20.868;2023-04-16T06:21:13;11.20;;;3.63;;
28960;SDS011;16068;42.896;20.868;2023-04-16T06:23:59;11.90;;;3.20;;
28960;SDS011;16068;42.896;20.868;2023-04-16T06:26:46;10.48;;;3.63;;
28960;SDS011;16068;42.896;20.868;2023-04-16T06:29:31;9.90;;;3.35;;
28960;SDS011;16068;42.896;20.868;2023-04-16T06:35:11;9.73;;;3.47;;
28960;SDS011;16068;42.896;20.868;2023-04-16T06:37:57;6.95;;;2.88;;
28960;SDS011;16068;42.896;20.868;2023-04-16T06:40:43;9.38;;;2.95;;
28960;SDS011;16068;42.896;20.868;2023-04-16T06:43:30;8.32;;;3.50;;
28960;SDS011;16068;42.896;20.868;2023-04-16T06:46:18;9.75;;;2.88;;
28960;SDS011;16068;42.896;20.868;2023-04-16T06:49:04;7.75;;;3.08;;
28960;SDS011;16068;42.896;20.868;2023-04-16T06:51:50;7.45;;;2.83;;
28960;SDS011;16068;42.896;20.868;2023-04-16T06:54:36;9.38;;;3.00;;
28960;SDS011;16068;42.896;20.868;2023-04-16T06:57:21;8.20;;;3.08;;
28960;SDS011;16068;42.896;20.868;2023-04-16T07:00:07;5.90;;;2.35;;
28960;SDS011;16068;42.896;20.868;2023-04-16T07:02:54;4.30;;;2.22;;
28960;SDS011;16068;42.896;20.868;2023-04-16T07:05:43;12.25;;;3.10;;
28960;SDS011;16068;42.896;20.868;2023-04-16T07:08:29;9.30;;;2.63;;
28960;SDS011;16068;42.896;20.868;2023-04-16T07:11:14;9.10;;;2.50;;
28960;SDS011;16068;42.896;20.868;2023-04-16T07:14:01;11.27;;;3.83;;
28960;SDS011;16068;42.896;20.868;2023-04-16T07:16:47;12.05;;;3.20;;
28960;SDS011;16068;42.896;20.868;2023-04-16T07:19:33;8.95;;;3.00;;
28960;SDS011;16068;42.896;20.868;2023-04-16T07:22:20;9.77;;;3.35;;
28960;SDS011;16068;42.896;20.868;2023-04-16T07:25:06;7.55;;;2.97;;
28960;SDS011;16068;42.896;20.868;2023-04-16T07:27:52;8.38;;;2.92;;
28960;SDS011;16068;42.896;20.868;2023-04-16T07:30:38;10.82;;;3.00;;
28960;SDS011;16068;42.896;20.868;2023-04-16T07:33:23;16.23;;;3.28;;
28960;SDS011;16068;42.896;20.868;2023-04-16T07:36:10;9.00;;;3.72;;
28960;SDS011;16068;42.896;20.868;2023-04-16T07:38:56;10.07;;;3.60;;
28960;SDS011;16068;42.896;20.868;2023-04-16T07:41:43;7.07;;;2.90;;
28960;SDS011;16068;42.896;20.868;2023-04-16T07:44:29;13.82;;;3.75;;
28960;SDS011;16068;42.896;20.868;2023-04-16T07:47:16;9.60;;;3.25;;
28960;SDS011;16068;42.896;20.868;2023-04-16T07:50:02;12.75;;;3.40;;
28960;SDS011;16068;42.896;20.868;2023-04-16T07:52:48;11.05;;;3.55;;
28960;SDS011;16068;42.896;20.868;2023-04-16T07:55:34;9.68;;;3.75;;
28960;SDS011;16068;42.896;20.868;2023-04-16T07:58:20;8.95;;;4.35;;
28960;SDS011;16068;42.896;20.868;2023-04-16T08:01:06;26.83;;;13.27;;
28960;SDS011;16068;42.896;20.868;2023-04-16T08:03:52;17.80;;;8.20;;
28960;SDS011;16068;42.896;20.868;2023-04-16T08:06:38;15.60;;;6.68;;
28960;SDS011;16068;42.896;20.868;2023-04-16T08:09:25;21.98;;;11.32;;
28960;SDS011;16068;42.896;20.868;2023-04-16T08:12:11;25.27;;;12.48;;
28960;SDS011;16068;42.896;20.868;2023-04-16T08:14:57;20.45;;;7.65;;
28960;SDS011;16068;42.896;20.868;2023-04-16T08:17:44;15.32;;;5.18;;
28960;SDS011;16068;42.896;20.868;2023-04-16T08:20:30;10.98;;;4.13;;
28960;SDS011;16068;42.896;20.868;2023-04-16T08:23:16;10.50;;;4.00;;
28960;SDS011;16068;42.896;20.868;2023-04-16T08:26:02;11.85;;;3.95;;
28960;SDS011;16068;42.896;20.868;2023-04-16T08:28:48;15.48;;;4.63;;
28960;SDS011;16068;42.896;20.868;2023-04-16T08:31:34;10.25;;;4.25;;
28960;SDS011;16068;42.896;20.868;2023-04-16T08:34:20;14.82;;;5.25;;
28960;SDS011;16068;42.896;20.868;2023-04-16T08:37:08;11.77;;;4.30;;
28960;SDS011;16068;42.896;20.868;2023-04-16T08:39:54;11.50;;;4.05;;
28960;SDS011;16068;42.896;20.868;2023-04-16T08:42:49;12.15;;;3.85;;
28960;SDS011;16068;42.896;20.868;2023-04-16T08:45:38;7.80;;;3.22;;
28960;SDS011;16068;42.896;20.868;2023-04-16T08:48:26;20.40;;;4.90;;
28960;SDS011;16068;42.896;20.868;2023-04-16T08:51:17;15.20;;;4.75;;
28960;SDS011;16068;42.896;20.868;2023-04-16T08:57:47;17.45;;;5.97;;
28960;SDS011;16068;42.896;20.868;2023-04-16T09:00:33;20.05;;;4.80;;
28960;SDS011;16068;42.896;20.868;2023-04-16T09:03:20;9.00;;;3.90;;
28960;SDS011;16068;42.896;20.868;2023-04-16T09:06:06;8.13;;;3.80;;
28960;SDS011;16068;42.896;20.868;2023-04-16T09:08:53;16.23;;;5.72;;
28960;SDS011;16068;42.896;20.868;2023-04-16T09:11:39;17.33;;;5.15;;
28960;SDS011;16068;42.896;20.868;2023-04-16T09:14:26;9.32;;;3.15;;
28960;SDS011;16068;42.896;20.868;2023-04-16T09:17:12;12.10;;;4.65;;
28960;SDS011;16068;42.896;20.868;2023-04-16T09:19:58;13.82;;;4.72;;
28960;SDS011;16068;42.896;20.868;2023-04-16T09:22:45;10.88;;;4.28;;
28960;SDS011;16068;42.896;20.868;2023-04-16T09:25:32;9.63;;;3.53;;
28960;SDS011;16068;42.896;20.868;2023-04-16T09:28:38;9.82;;;3.30;;
28960;SDS011;16068;42.896;20.868;2023-04-16T09:31:28;9.20;;;2.95;;
28960;SDS011;16068;42.896;20.868;2023-04-16T09:34:13;8.50;;;3.25;;
28960;SDS011;16068;42.896;20.868;2023-04-16T09:37:15;13.77;;;4.10;;
28960;SDS011;16068;42.896;20.868;2023-04-16T09:40:02;9.02;;;3.15;;
28960;SDS011;16068;42.896;20.868;2023-04-16T09:42:51;7.20;;;3.47;;
28960;SDS011;16068;42.896;20.868;2023-04-16T09:45:47;6.72;;;3.40;;
28960;SDS011;16068;42.896;20.868;2023-04-16T09:48:35;8.95;;;4.18;;
28960;SDS011;16068;42.896;20.868;2023-04-16T09:51:22;7.60;;;3.72;;
28960;SDS011;16068;42.896;20.868;2023-04-16T09:54:09;8.90;;;3.88;;
28960;SDS011;16068;42.896;20.868;2023-04-16T09:56:56;10.65;;;3.80;;
28960;SDS011;16068;42.896;20.868;2023-04-16T09:59:42;7.10;;;2.75;;
28960;SDS011;16068;42.896;20.868;2023-04-16T10:02:28;8.52;;;2.67;;
28960;SDS011;16068;42.896;20.868;2023-04-16T10:05:15;6.90;;;2.80;;
28960;SDS011;16068;42.896;20.868;2023-04-16T10:08:11;6.50;;;2.13;;
28960;SDS011;16068;42.896;20.868;2023-04-16T10:10:58;6.85;;;2.20;;
28960;SDS011;16068;42.896;20.868;2023-04-16T10:13:44;6.68;;;2.13;;
28960;SDS011;16068;42.896;20.868;2023-04-16T10:16:31;8.15;;;1.70;;
28960;SDS011;16068;42.896;20.868;2023-04-16T10:19:20;8.10;;;2.10;;
28960;SDS011;16068;42.896;20.868;2023-04-16T10:22:06;5.93;;;1.95;;
28960;SDS011;16068;42.896;20.868;2023-04-16T10:24:52;7.05;;;2.22;;
28960;SDS011;16068;42.896;20.868;2023-04-16T10:27:39;6.85;;;1.98;;
28960;SDS011;16068;42.896;20.868;2023-04-16T10:30:25;8.05;;;2.88;;
28960;SDS011;16068;42.896;20.868;2023-04-16T10:33:11;6.90;;;2.63;;
28960;SDS011;16068;42.896;20.868;2023-04-16T10:36:14;7.88;;;2.42;;
28960;SDS011;16068;42.896;20.868;2023-04-16T10:39:10;7.53;;;2.55;;
28960;SDS011;16068;42.896;20.868;2023-04-16T10:42:07;7.43;;;1.90;;
28960;SDS011;16068;42.896;20.868;2023-04-16T10:44:58;5.63;;;1.95;;
28960;SDS011;16068;42.896;20.868;2023-04-16T10:47:44;7.63;;;2.17;;
28960;SDS011;16068;42.896;20.868;2023-04-16T10:50:39;10.52;;;2.67;;
28960;SDS011;16068;42.896;20.868;2023-04-16T10:53:37;9.90;;;2.47;;
28960;SDS011;16068;42.896;20.868;2023-04-16T10:56:24;4.60;;;2.05;;
28960;SDS011;16068;42.896;20.868;2023-04-16T10:59:12;7.65;;;2.72;;
28960;SDS011;16068;42.896;20.868;2023-04-16T11:01:59;5.00;;;2.22;;
28960;SDS011;16068;42.896;20.868;2023-04-16T11:04:48;8.35;;;2.63;;
28960;SDS011;16068;42.896;20.868;2023-04-16T11:07:34;16.80;;;2.90;;
28960;SDS011;16068;42.896;20.868;2023-04-16T11:10:20;8.63;;;2.90;;
28960;SDS011;16068;42.896;20.868;2023-04-16T11:13:06;7.30;;;2.38;;
28960;SDS011;16068;42.896;20.868;2023-04-16T11:15:55;11.70;;;3.20;;
28960;SDS011;16068;42.896;20.868;2023-04-16T11:18:44;7.03;;;2.70;;
28960;SDS011;16068;42.896;20.868;2023-04-16T11:21:42;6.72;;;3.05;;
28960;SDS011;16068;42.896;20.868;2023-04-16T11:24:30;9.00;;;2.75;;
28960;SDS011;16068;42.896;20.868;2023-04-16T11:27:16;5.15;;;2.88;;
28960;SDS011;16068;42.896;20.868;2023-04-16T11:30:06;9.88;;;2.30;;
28960;SDS011;16068;42.896;20.868;2023-04-16T11:32:55;10.03;;;2.77;;
28960;SDS011;16068;42.896;20.868;2023-04-16T11:35:41;7.13;;;2.42;;
28960;SDS011;16068;42.896;20.868;2023-04-16T11:38:31;4.30;;;2.03;;
28960;SDS011;16068;42.896;20.868;2023-04-16T11:41:19;10.63;;;3.22;;
28960;SDS011;16068;42.896;20.868;2023-04-16T11:44:22;6.82;;;2.97;;
28960;SDS011;16068;42.896;20.868;2023-04-16T11:47:09;9.48;;;2.33;;
28960;SDS011;16068;42.896;20.868;2023-04-16T11:50:13;12.18;;;3.03;;
28960;SDS011;16068;42.896;20.868;2023-04-16T11:53:10;7.15;;;2.33;;
28960;SDS011;16068;42.896;20.868;2023-04-16T11:55:57;9.73;;;3.17;;
28960;SDS011;16068;42.896;20.868;2023-04-16T11:59:04;7.50;;;2.35;;
28960;SDS011;16068;42.896;20.868;2023-04-16T12:01:52;7.75;;;1.50;;
28960;SDS011;16068;42.896;20.868;2023-04-16T12:04:42;4.32;;;2.15;;
28960;SDS011;16068;42.896;20.868;2023-04-16T12:07:28;5.47;;;2.17;;
28960;SDS011;16068;42.896;20.868;2023-04-16T12:10:14;6.60;;;2.50;;
28960;SDS011;16068;42.896;20.868;2023-04-16T12:16:02;7.40;;;3.28;;
28960;SDS011;16068;42.896;20.868;2023-04-16T12:19:01;5.05;;;2.08;;
28960;SDS011;16068;42.896;20.868;2023-04-16T12:21:48;12.80;;;2.97;;
28960;SDS011;16068;42.896;20.868;2023-04-16T12:24:35;7.93;;;3.10;;
28960;SDS011;16068;42.896;20.868;2023-04-16T12:27:22;10.85;;;3.13;;
28960;SDS011;16068;42.896;20.868;2023-04-16T12:30:13;6.53;;;2.60;;
28960;SDS011;16068;42.896;20.868;2023-04-16T12:33:12;8.05;;;2.10;;
28960;SDS011;16068;42.896;20.868;2023-04-16T12:36:15;7.05;;;2.30;;
28960;SDS011;16068;42.896;20.868;2023-04-16T12:39:05;4.78;;;2.40;;
28960;SDS011;16068;42.896;20.868;2023-04-16T12:41:52;5.88;;;3.08;;
28960;SDS011;16068;42.896;20.868;2023-04-16T12:44:37;13.65;;;5.18;;
28960;SDS011;16068;42.896;20.868;2023-04-16T12:47:23;6.43;;;2.72;;
28960;SDS011;16068;42.896;20.868;2023-04-16T12:50:09;7.65;;;2.75;;
28960;SDS011;16068;42.896;20.868;2023-04-16T12:52:56;4.40;;;2.50;;
28960;SDS011;16068;42.896;20.868;2023-04-16T12:55:42;4.45;;;2.30;;
28960;SDS011;16068;42.896;20.868;2023-04-16T12:58:29;4.63;;;2.10;;
28960;SDS011;16068;42.896;20.868;2023-04-16T13:01:15;11.48;;;2.30;;
28960;SDS011;16068;42.896;20.868;2023-04-16T13:04:04;5.28;;;2.00;;
28960;SDS011;16068;42.896;20.868;2023-04-16T13:06:52;8.82;;;2.15;;
28960;SDS011;16068;42.896;20.868;2023-04-16T13:09:38;5.18;;;1.83;;
28960;SDS011;16068;42.896;20.868;2023-04-16T13:12:24;9.77;;;2.65;;
28960;SDS011;16068;42.896;20.868;2023-04-16T13:15:11;11.80;;;2.72;;
28960;SDS011;16068;42.896;20.868;2023-04-16T13:17:57;6.15;;;2.35;;
28960;SDS011;16068;42.896;20.868;2023-04-16T13:20:44;9.60;;;2.78;;
28960;SDS011;16068;42.896;20.868;2023-04-16T13:23:30;7.03;;;2.17;;
28960;SDS011;16068;42.896;20.868;2023-04-16T13:26:16;13.98;;;2.50;;
28960;SDS011;16068;42.896;20.868;2023-04-16T13:29:02;13.88;;;2.80;;
28960;SDS011;16068;42.896;20.868;2023-04-16T13:31:48;10.40;;;3.30;;
28960;SDS011;16068;42.896;20.868;2023-04-16T13:34:33;7.63;;;2.70;;
28960;SDS011;16068;42.896;20.868;2023-04-16T13:37:20;6.85;;;2.38;;
28960;SDS011;16068;42.896;20.868;2023-04-16T13:40:06;8.48;;;2.90;;
28960;SDS011;16068;42.896;20.868;2023-04-16T13:42:53;6.05;;;2.53;;
28960;SDS011;16068;42.896;20.868;2023-04-16T13:45:38;7.25;;;2.10;;
28960;SDS011;16068;42.896;20.868;2023-04-16T13:48:25;6.97;;;2.17;;
28960;SDS011;16068;42.896;20.868;2023-04-16T13:51:11;6.53;;;2.30;;
28960;SDS011;16068;42.896;20.868;2023-04-16T13:54:01;11.75;;;2.30;;
28960;SDS011;16068;42.896;20.868;2023-04-16T13:56:48;7.40;;;2.58;;
28960;SDS011;16068;42.896;20.868;2023-04-16T13:59:35;7.55;;;3.08;;
28960;SDS011;16068;42.896;20.868;2023-04-16T14:02:21;10.85;;;2.70;;
28960;SDS011;16068;42.896;20.868;2023-04-16T14:05:07;8.25;;;2.95;;
28960;SDS011;16068;42.896;20.868;2023-04-16T14:07:54;26.13;;;4.00;;
28960;SDS011;16068;42.896;20.868;2023-04-16T14:10:40;10.00;;;3.33;;
28960;SDS011;16068;42.896;20.868;2023-04-16T14:13:26;10.88;;;2.85;;
28960;SDS011;16068;42.896;20.868;2023-04-16T14:16:12;4.80;;;2.03;;
28960;SDS011;16068;42.896;20.868;2023-04-16T14:18:59;7.22;;;2.70;;
28960;SDS011;16068;42.896;20.868;2023-04-16T14:21:45;19.13;;;5.85;;
28960;SDS011;16068;42.896;20.868;2023-04-16T14:24:31;12.35;;;4.90;;
28960;SDS011;16068;42.896;20.868;2023-04-16T14:27:17;9.70;;;4.40;;
28960;SDS011;16068;42.896;20.868;2023-04-16T14:30:03;14.88;;;4.88;;
28960;SDS011;16068;42.896;20.868;2023-04-16T14:32:50;13.48;;;4.82;;
28960;SDS011;16068;42.896;20.868;2023-04-16T14:35:36;11.38;;;4.53;;
28960;SDS011;16068;42.896;20.868;2023-04-16T14:38:22;13.10;;;4.53;;
28960;SDS011;16068;42.896;20.868;2023-04-16T14:41:09;7.60;;;3.80;;
28960;SDS011;16068;42.896;20.868;2023-04-16T14:43:57;8.20;;;3.25;;
28960;SDS011;16068;42.896;20.868;2023-04-16T14:46:44;12.07;;;3.40;;
28960;SDS011;16068;42.896;20.868;2023-04-16T14:49:30;6.35;;;2.90;;
28960;SDS011;16068;42.896;20.868;2023-04-16T14:52:16;9.68;;;3.05;;
28960;SDS011;16068;42.896;20.868;2023-04-16T14:55:03;9.15;;;3.40;;
28960;SDS011;16068;42.896;20.868;2023-04-16T14:57:50;16.08;;;4.45;;
28960;SDS011;16068;42.896;20.868;2023-04-16T15:00:35;13.20;;;4.15;;
28960;SDS011;16068;42.896;20.868;2023-04-16T15:03:22;16.00;;;5.10;;
28960;SDS011;16068;42.896;20.868;2023-04-16T15:06:08;19.48;;;5.70;;
28960;SDS011;16068;42.896;20.868;2023-04-16T15:08:55;14.65;;;5.45;;
28960;SDS011;16068;42.896;20.868;2023-04-16T15:11:41;9.82;;;3.53;;
28960;SDS011;16068;42.896;20.868;2023-04-16T15:14:27;11.60;;;3.47;;
28960;SDS011;16068;42.896;20.868;2023-04-16T15:17:13;8.52;;;3.17;;
28960;SDS011;16068;42.896;20.868;2023-04-16T15:19:59;9.57;;;3.75;;
28960;SDS011;16068;42.896;20.868;2023-04-16T15:22:45;12.93;;;4.10;;
28960;SDS011;16068;42.896;20.868;2023-04-16T15:25:31;9.43;;;3.92;;
28960;SDS011;16068;42.896;20.868;2023-04-16T15:28:18;12.00;;;4.00;;
28960;SDS011;16068;42.896;20.868;2023-04-16T15:31:04;13.93;;;4.03;;
28960;SDS011;16068;42.896;20.868;2023-04-16T15:33:50;15.23;;;4.15;;
28960;SDS011;16068;42.896;20.868;2023-04-16T15:36:36;21.55;;;4.68;;
28960;SDS011;16068;42.896;20.868;2023-04-16T15:39:23;21.60;;;4.53;;
28960;SDS011;16068;42.896;20.868;2023-04-16T15:42:10;16.25;;;5.20;;
28960;SDS011;16068;42.896;20.868;2023-04-16T15:44:57;19.83;;;4.88;;
28960;SDS011;16068;42.896;20.868;2023-04-16T15:47:43;23.30;;;5.35;;
28960;SDS011;16068;42.896;20.868;2023-04-16T15:50:32;19.73;;;5.25;;
28960;SDS011;16068;42.896;20.868;2023-04-16T15:53:18;22.90;;;5.85;;
28960;SDS011;16068;42.896;20.868;2023-04-16T15:56:04;27.55;;;6.43;;
28960;SDS011;16068;42.896;20.868;2023-04-16T15:58:50;23.05;;;5.50;;
28960;SDS011;16068;42.896;20.868;2023-04-16T16:01:37;22.45;;;4.88;;
28960;SDS011;16068;42.896;20.868;2023-04-16T16:04:23;21.02;;;5.10;;
28960;SDS011;16068;42.896;20.868;2023-04-16T16:07:11;13.05;;;3.60;;
28960;SDS011;16068;42.896;20.868;2023-04-16T16:09:57;7.57;;;2.80;;
28960;SDS011;16068;42.896;20.868;2023-04-16T16:12:43;14.70;;;2.83;;
28960;SDS011;16068;42.896;20.868;2023-04-16T16:15:30;7.05;;;2.70;;
28960;SDS011;16068;42.896;20.868;2023-04-16T16:18:16;5.25;;;2.00;;
28960;SDS011;16068;42.896;20.868;2023-04-16T16:21:02;6.45;;;2.00;;
28960;SDS011;16068;42.896;20.868;2023-04-16T16:23:48;9.25;;;2.50;;
28960;SDS011;16068;42.896;20.868;2023-04-16T16:26:34;4.57;;;2.20;;
28960;SDS011;16068;42.896;20.868;2023-04-16T16:29:20;6.07;;;2.03;;
28960;SDS011;16068;42.896;20.868;2023-04-16T16:32:06;12.52;;;2.17;;
28960;SDS011;16068;42.896;20.868;2023-04-16T16:34:52;5.70;;;2.00;;